createdAt,value
2022-08-30T00:01:41.312Z,14.70
2022-08-30T00:04:09.214Z,10.68
2022-08-30T00:06:35.799Z,17.05
2022-08-30T00:09:02.350Z,10.65
2022-08-30T00:11:28.898Z,15.32
2022-08-30T00:13:56.760Z,15.52
2022-08-30T00:16:24.350Z,11.88
2022-08-30T00:18:51.054Z,15.38
2022-08-30T00:21:19.980Z,11.20
2022-08-30T00:23:46.555Z,13.25
2022-08-30T00:26:13.251Z,10.60
2022-08-30T00:28:39.831Z,13.07
2022-08-30T00:31:06.797Z,14.10
2022-08-30T00:33:33.543Z,13.88
2022-08-30T00:36:00.112Z,11.90
2022-08-30T00:38:28.408Z,14.48
2022-08-30T00:40:55.184Z,11.85
2022-08-30T00:43:25.499Z,12.80
2022-08-30T00:45:55.733Z,12.30
2022-08-30T00:48:22.915Z,13.20
2022-08-30T00:50:54.249Z,17.52
2022-08-30T00:53:24.564Z,12.68
2022-08-30T00:55:53.798Z,12.32
2022-08-30T00:58:24.651Z,13.35
2022-08-30T01:00:54.641Z,13.52
2022-08-30T01:03:21.660Z,10.93
2022-08-30T01:05:49.411Z,12.07
2022-08-30T01:08:15.967Z,14.27
2022-08-30T01:10:43.279Z,13.68
2022-08-30T01:13:12.198Z,14.10
2022-08-30T01:15:38.871Z,16.92
2022-08-30T01:18:07.761Z,12.60
2022-08-30T01:20:43.373Z,15.93
2022-08-30T01:23:14.734Z,13.40
2022-08-30T01:25:43.480Z,11.63
2022-08-30T01:28:13.239Z,16.98
2022-08-30T01:30:40.119Z,16.77
2022-08-30T01:33:08.207Z,11.93
2022-08-30T01:35:46.071Z,11.82
2022-08-30T01:38:15.958Z,13.13
2022-08-30T01:40:42.681Z,12.30
2022-08-30T01:43:10.978Z,13.88
2022-08-30T01:45:37.616Z,15.00
2022-08-30T01:48:06.562Z,12.40
2022-08-30T01:50:33.651Z,15.63
2022-08-30T01:53:00.342Z,13.93
2022-08-30T01:55:28.314Z,12.30
2022-08-30T01:57:54.852Z,11.85
2022-08-30T02:00:21.644Z,11.93
2022-08-30T02:02:48.202Z,13.85
2022-08-30T02:05:14.900Z,12.80
2022-08-30T02:07:41.525Z,13.95
2022-08-30T02:10:08.911Z,13.85
2022-08-30T02:12:36.779Z,15.05
2022-08-30T02:15:03.760Z,13.15
2022-08-30T02:17:30.338Z,14.13
2022-08-30T02:19:56.842Z,13.23
2022-08-30T02:22:23.365Z,14.73
2022-08-30T02:24:49.894Z,12.30
2022-08-30T02:27:16.475Z,13.60
2022-08-30T02:29:45.031Z,11.48
2022-08-30T02:32:11.721Z,15.70
2022-08-30T02:34:38.226Z,15.95
2022-08-30T02:37:04.969Z,12.63
2022-08-30T02:39:31.466Z,11.73
2022-08-30T02:41:58.022Z,13.27
2022-08-30T02:44:24.635Z,11.45
2022-08-30T02:46:52.547Z,13.43
2022-08-30T02:49:34.693Z,10.88
2022-08-30T02:52:03.335Z,14.38
2022-08-30T02:54:29.875Z,14.02
2022-08-30T02:56:56.438Z,11.55
2022-08-30T02:59:22.994Z,15.25
2022-08-30T03:01:49.856Z,14.35
2022-08-30T03:04:17.835Z,12.43
2022-08-30T03:06:49.032Z,13.05
2022-08-30T03:09:15.588Z,13.75
2022-08-30T03:11:42.174Z,15.25
2022-08-30T03:14:08.720Z,14.57
2022-08-30T03:16:35.319Z,12.27
2022-08-30T03:19:01.852Z,13.00
2022-08-30T03:21:29.733Z,14.60
2022-08-30T03:23:56.312Z,16.60
2022-08-30T03:26:22.861Z,13.05
2022-08-30T03:28:49.416Z,12.60
2022-08-30T03:31:16.049Z,12.75
2022-08-30T03:33:42.679Z,13.85
2022-08-30T03:36:10.364Z,11.95
2022-08-30T03:38:39.050Z,12.80
2022-08-30T03:41:05.845Z,16.33
2022-08-30T03:43:34.628Z,14.25
2022-08-30T03:46:01.673Z,15.10
2022-08-30T03:48:28.376Z,12.13
2022-08-30T03:50:55.040Z,15.63
2022-08-30T03:53:21.876Z,11.88
2022-08-30T03:55:49.839Z,15.65
2022-08-30T03:58:19.188Z,11.43
2022-08-30T04:00:46.094Z,12.15
2022-08-30T04:03:12.809Z,14.55
2022-08-30T04:05:39.537Z,11.32
2022-08-30T04:08:06.388Z,11.70
2022-08-30T04:10:33.023Z,16.80
2022-08-30T04:13:00.914Z,15.30
2022-08-30T04:15:27.459Z,13.68
2022-08-30T04:17:54.055Z,13.88
2022-08-30T04:20:21.410Z,15.73
2022-08-30T04:22:47.981Z,12.27
2022-08-30T04:25:15.853Z,12.45
2022-08-30T04:27:42.907Z,15.23
2022-08-30T04:30:11.944Z,12.70
2022-08-30T04:32:38.564Z,17.75
2022-08-30T04:35:06.335Z,12.88
2022-08-30T04:37:32.902Z,11.95
2022-08-30T04:40:00.014Z,12.77
2022-08-30T04:42:26.940Z,16.10
2022-08-30T04:44:53.660Z,17.15
2022-08-30T04:47:21.577Z,11.65
2022-08-30T04:49:48.101Z,12.75
2022-08-30T04:52:14.878Z,12.77
2022-08-30T04:54:41.404Z,14.48
2022-08-30T04:57:08.006Z,14.02
2022-08-30T04:59:34.530Z,13.77
2022-08-30T05:02:01.150Z,14.75
2022-08-30T05:04:29.078Z,12.60
2022-08-30T05:06:55.739Z,15.00
2022-08-30T05:09:22.281Z,14.90
2022-08-30T05:11:48.890Z,15.32
2022-08-30T05:14:15.466Z,15.32
2022-08-30T05:16:42.728Z,14.23
2022-08-30T05:19:09.372Z,15.60
2022-08-30T05:21:37.327Z,14.32
2022-08-30T05:24:03.957Z,13.48
2022-08-30T05:26:33.570Z,16.55
2022-08-30T05:29:01.210Z,11.95
2022-08-30T05:31:30.572Z,13.00
2022-08-30T05:33:58.421Z,13.25
2022-08-30T05:36:26.834Z,12.10
2022-08-30T05:38:55.356Z,15.65
2022-08-30T05:41:24.993Z,16.55
2022-08-30T05:43:54.168Z,13.98
2022-08-30T05:46:20.888Z,15.25
2022-08-30T05:48:48.667Z,15.15
2022-08-30T05:51:17.507Z,14.75
2022-08-30T05:53:45.481Z,16.48
2022-08-30T05:56:15.584Z,14.57
2022-08-30T05:58:42.534Z,12.25
2022-08-30T06:01:19.278Z,12.05
2022-08-30T06:03:45.853Z,10.80
2022-08-30T06:06:12.390Z,15.73
2022-08-30T06:08:38.957Z,14.13
2022-08-30T06:11:05.634Z,14.15
2022-08-30T06:13:33.563Z,12.63
2022-08-30T06:16:00.173Z,15.38
2022-08-30T06:18:28.804Z,12.05
2022-08-30T06:20:55.514Z,12.75
2022-08-30T06:23:22.093Z,15.13
2022-08-30T06:25:48.839Z,14.45
2022-08-30T06:28:15.972Z,12.90
2022-08-30T06:30:43.969Z,12.82
2022-08-30T06:33:10.670Z,14.32
2022-08-30T06:35:42.315Z,13.02
2022-08-30T06:38:18.928Z,14.50
2022-08-30T06:40:45.583Z,13.13
2022-08-30T06:43:12.144Z,17.58
2022-08-30T06:45:38.699Z,13.05
2022-08-30T06:48:06.614Z,13.35
2022-08-30T06:50:33.198Z,19.40
2022-08-30T06:53:00.558Z,16.88
2022-08-30T06:55:27.520Z,16.38
2022-08-30T06:57:54.058Z,17.80
2022-08-30T07:00:20.808Z,12.63
2022-08-30T07:02:47.419Z,15.35
2022-08-30T07:05:18.608Z,17.27
2022-08-30T07:07:45.440Z,13.30
2022-08-30T07:10:12.063Z,19.90
2022-08-30T07:12:38.594Z,16.75
2022-08-30T07:15:06.140Z,17.05
2022-08-30T07:17:34.850Z,13.73
2022-08-30T07:20:02.423Z,12.77
2022-08-30T07:22:30.330Z,13.80
2022-08-30T07:24:56.894Z,13.05
2022-08-30T07:27:23.544Z,18.38
2022-08-30T07:29:50.318Z,12.90
2022-08-30T07:32:16.893Z,14.25
2022-08-30T07:34:43.524Z,16.77
2022-08-30T07:37:10.205Z,19.13
2022-08-30T07:39:48.082Z,12.80
2022-08-30T07:42:15.108Z,15.20
2022-08-30T07:44:41.677Z,15.98
2022-08-30T07:47:08.228Z,13.43
2022-08-30T07:49:34.826Z,13.18
2022-08-30T07:52:01.513Z,12.38
2022-08-30T07:54:28.083Z,14.98
2022-08-30T07:56:56.007Z,12.93
2022-08-30T07:59:22.766Z,15.10
2022-08-30T08:01:49.370Z,14.88
2022-08-30T08:04:16.011Z,12.45
2022-08-30T08:06:42.752Z,16.70
2022-08-30T08:09:09.520Z,12.27
2022-08-30T08:11:36.425Z,13.05
2022-08-30T08:14:04.716Z,12.02
2022-08-30T08:16:33.672Z,13.43
2022-08-30T08:19:00.379Z,13.73
2022-08-30T08:21:27.270Z,14.85
2022-08-30T08:23:54.139Z,14.57
2022-08-30T08:26:21.725Z,13.95
2022-08-30T08:28:48.321Z,19.05
2022-08-30T08:31:17.158Z,13.02
2022-08-30T08:33:44.272Z,12.95
2022-08-30T08:36:10.983Z,14.05
2022-08-30T08:38:37.855Z,11.77
2022-08-30T08:41:10.866Z,16.05
2022-08-30T08:43:37.627Z,14.15
2022-08-30T08:46:10.266Z,12.55
2022-08-30T08:48:59.518Z,11.80
2022-08-30T08:51:31.043Z,13.73
2022-08-30T08:54:02.523Z,14.85
2022-08-30T08:59:18.298Z,14.05
2022-08-30T09:01:46.914Z,12.32
2022-08-30T09:04:17.155Z,11.48
2022-08-30T09:06:53.532Z,13.25
2022-08-30T09:09:23.884Z,12.75
2022-08-30T09:11:50.415Z,11.43
2022-08-30T09:14:22.611Z,12.15
2022-08-30T09:16:53.478Z,11.98
2022-08-30T09:19:39.839Z,10.03
2022-08-30T09:22:16.282Z,11.35
2022-08-30T09:24:45.171Z,14.52
2022-08-30T09:27:24.354Z,11.80
2022-08-30T09:30:04.345Z,11.65
2022-08-30T09:32:35.417Z,14.50
2022-08-30T09:35:04.763Z,14.25
2022-08-30T09:37:36.395Z,11.30
2022-08-30T09:42:35.333Z,11.77
2022-08-30T09:45:01.959Z,13.52
2022-08-30T09:47:31.586Z,11.07
2022-08-30T09:50:06.435Z,12.60
2022-08-30T09:52:42.301Z,9.95
2022-08-30T09:55:20.493Z,14.40
2022-08-30T09:57:56.983Z,10.20
2022-08-30T10:00:25.447Z,12.60
2022-08-30T10:03:02.060Z,9.32
2022-08-30T10:05:35.140Z,9.90
2022-08-30T10:08:12.787Z,15.30
2022-08-30T10:10:47.524Z,9.10
2022-08-30T10:13:36.916Z,13.45
2022-08-30T10:16:13.009Z,12.40
2022-08-30T10:18:51.098Z,10.55
2022-08-30T10:21:24.698Z,11.38
2022-08-30T10:23:57.322Z,10.75
2022-08-30T10:26:30.644Z,12.07
2022-08-30T10:29:03.167Z,9.20
2022-08-30T10:31:36.444Z,10.88
2022-08-30T10:34:06.586Z,10.80
2022-08-30T10:36:41.618Z,13.70
2022-08-30T10:39:10.325Z,8.65
2022-08-30T10:41:46.165Z,9.80
2022-08-30T10:44:20.230Z,10.40
2022-08-30T10:46:58.443Z,9.15
2022-08-30T10:49:28.538Z,8.68
2022-08-30T10:52:06.805Z,9.68
2022-08-30T10:54:40.542Z,9.18
2022-08-30T10:57:07.143Z,8.65
2022-08-30T10:59:38.604Z,13.40
2022-08-30T11:05:07.820Z,9.68
2022-08-30T11:07:41.684Z,7.60
2022-08-30T11:10:26.454Z,11.15
2022-08-30T11:13:00.705Z,9.70
2022-08-30T11:15:30.972Z,10.25
2022-08-30T11:18:01.924Z,9.10
2022-08-30T11:20:34.578Z,7.18
2022-08-30T11:23:26.595Z,10.55
2022-08-30T11:25:57.881Z,6.38
2022-08-30T11:29:02.286Z,9.43
2022-08-30T11:31:37.552Z,9.05
2022-08-30T11:34:05.245Z,8.75
2022-08-30T11:37:09.560Z,8.73
2022-08-30T11:39:55.992Z,6.88
2022-08-30T11:42:29.966Z,9.55
2022-08-30T11:45:29.961Z,8.63
2022-08-30T11:47:59.410Z,12.57
2022-08-30T11:50:30.586Z,9.50
2022-08-30T11:53:05.398Z,10.20
2022-08-30T11:55:46.123Z,7.97
2022-08-30T11:58:33.201Z,8.90
2022-08-30T12:01:40.758Z,10.95
2022-08-30T12:04:09.155Z,6.47
2022-08-30T12:07:01.093Z,9.90
2022-08-30T12:10:00.930Z,10.15
2022-08-30T12:13:00.554Z,7.63
2022-08-30T12:15:56.639Z,6.72
2022-08-30T12:18:40.888Z,6.72
2022-08-30T12:21:23.743Z,8.88
2022-08-30T12:23:59.878Z,7.30
2022-08-30T12:26:34.222Z,7.70
2022-08-30T12:29:15.695Z,7.07
2022-08-30T12:31:45.166Z,6.88
2022-08-30T12:34:20.498Z,6.47
2022-08-30T12:36:55.124Z,10.57
2022-08-30T12:39:24.702Z,6.85
2022-08-30T12:41:51.431Z,6.40
2022-08-30T12:44:22.343Z,9.07
2022-08-30T12:46:54.904Z,5.78
2022-08-30T12:49:27.952Z,7.07
2022-08-30T12:51:55.915Z,7.53
2022-08-30T12:54:25.787Z,6.55
2022-08-30T12:57:14.020Z,6.93
2022-08-30T13:02:21.114Z,7.03
2022-08-30T13:04:49.538Z,6.45
2022-08-30T13:07:40.056Z,7.43
2022-08-30T13:10:15.035Z,7.50
2022-08-30T13:13:00.480Z,6.40
2022-08-30T13:15:32.728Z,6.93
2022-08-30T13:18:18.345Z,5.20
2022-08-30T13:21:26.340Z,5.78
2022-08-30T13:23:58.173Z,5.85
2022-08-30T13:26:26.134Z,6.43
2022-08-30T13:28:57.145Z,5.60
2022-08-30T13:31:26.098Z,7.18
2022-08-30T13:33:55.657Z,7.47
2022-08-30T13:36:28.054Z,6.07
2022-08-30T13:38:54.962Z,6.32
2022-08-30T13:41:21.900Z,5.05
2022-08-30T13:46:35.802Z,6.63
2022-08-30T13:49:43.210Z,5.65
2022-08-30T13:52:09.725Z,6.32
2022-08-30T13:54:40.238Z,6.35
2022-08-30T13:57:06.824Z,6.07
2022-08-30T13:59:33.361Z,6.22
2022-08-30T14:02:09.087Z,5.72
2022-08-30T14:04:39.439Z,4.97
2022-08-30T14:07:16.961Z,7.80
2022-08-30T14:09:47.237Z,5.07
2022-08-30T14:12:13.838Z,5.15
2022-08-30T14:14:43.033Z,7.97
2022-08-30T14:17:10.690Z,6.22
2022-08-30T14:19:40.451Z,6.03
2022-08-30T14:22:06.981Z,5.38
2022-08-30T14:24:34.751Z,5.63
2022-08-30T14:27:01.290Z,5.63
2022-08-30T14:29:28.455Z,5.35
2022-08-30T14:31:55.309Z,6.05
2022-08-30T14:34:22.027Z,5.97
2022-08-30T14:36:49.976Z,4.88
2022-08-30T14:39:21.323Z,5.13
2022-08-30T14:41:50.529Z,5.47
2022-08-30T14:44:18.183Z,4.45
2022-08-30T14:46:44.980Z,4.47
2022-08-30T14:49:11.994Z,3.95
2022-08-30T14:51:39.115Z,5.00
2022-08-30T14:54:07.549Z,7.22
2022-08-30T14:56:34.598Z,4.28
2022-08-30T14:59:01.214Z,5.57
2022-08-30T15:01:29.173Z,3.95
2022-08-30T15:03:57.203Z,4.97
2022-08-30T15:06:26.344Z,6.03
2022-08-30T15:08:53.955Z,6.13
2022-08-30T15:11:23.122Z,6.35
2022-08-30T15:13:52.942Z,4.30
2022-08-30T15:16:22.601Z,5.10
2022-08-30T15:18:49.608Z,6.45
2022-08-30T15:21:50.357Z,4.80
2022-08-30T15:24:19.409Z,3.83
2022-08-30T15:26:51.572Z,4.78
2022-08-30T15:29:19.491Z,6.10
2022-08-30T15:31:49.944Z,5.07
2022-08-30T15:34:18.761Z,4.90
2022-08-30T15:36:46.050Z,5.55
2022-08-30T15:39:15.472Z,5.63
2022-08-30T15:41:44.309Z,4.68
2022-08-30T15:44:11.739Z,4.40
2022-08-30T15:46:39.969Z,4.65
2022-08-30T15:49:11.650Z,7.68
2022-08-30T15:51:41.408Z,5.07
2022-08-30T15:54:09.925Z,4.25
2022-08-30T15:56:41.813Z,27.30
2022-08-30T15:59:09.050Z,11.38
2022-08-30T16:01:36.386Z,11.02
2022-08-30T16:04:03.830Z,5.43
2022-08-30T16:06:34.660Z,5.05
2022-08-30T16:09:01.435Z,11.43
2022-08-30T16:11:28.138Z,5.15
2022-08-30T16:13:56.898Z,5.38
2022-08-30T16:16:23.960Z,5.97
2022-08-30T16:18:54.148Z,7.28
2022-08-30T16:21:25.163Z,7.13
2022-08-30T16:23:54.611Z,5.70
2022-08-30T16:26:21.237Z,5.65
2022-08-30T16:28:49.231Z,7.50
2022-08-30T16:31:18.190Z,6.25
2022-08-30T16:33:45.920Z,5.30
2022-08-30T16:36:13.507Z,4.15
2022-08-30T16:38:40.663Z,5.65
2022-08-30T16:41:09.961Z,4.88
2022-08-30T16:43:38.884Z,5.15
2022-08-30T16:46:09.156Z,9.82
2022-08-30T16:48:39.416Z,6.63
2022-08-30T16:51:09.048Z,5.53
2022-08-30T16:53:36.561Z,11.18
2022-08-30T16:56:05.491Z,8.18
2022-08-30T16:58:32.178Z,4.88
2022-08-30T17:00:58.769Z,10.95
2022-08-30T17:03:26.527Z,6.20
2022-08-30T17:05:54.716Z,8.07
2022-08-30T17:08:23.855Z,6.43
2022-08-30T17:10:50.433Z,9.20
2022-08-30T17:13:17.031Z,8.93
2022-08-30T17:15:43.628Z,8.95
2022-08-30T17:18:10.260Z,7.78
2022-08-30T17:20:36.809Z,10.52
2022-08-30T17:23:05.076Z,7.30
2022-08-30T17:25:34.063Z,7.32
2022-08-30T17:28:00.888Z,8.00
2022-08-30T17:30:27.428Z,7.40
2022-08-30T17:32:54.162Z,11.82
2022-08-30T17:35:22.173Z,8.15
2022-08-30T17:37:49.266Z,9.93
2022-08-30T17:40:20.164Z,9.60
2022-08-30T17:42:46.795Z,12.40
2022-08-30T17:45:16.409Z,10.07
2022-08-30T17:47:43.489Z,9.65
2022-08-30T17:50:11.248Z,6.78
2022-08-30T17:52:38.383Z,7.75
2022-08-30T17:55:07.464Z,8.27
2022-08-30T17:57:35.806Z,7.72
2022-08-30T18:00:04.444Z,7.20
2022-08-30T18:02:31.261Z,8.55
2022-08-30T18:04:59.089Z,11.90
2022-08-30T18:07:26.157Z,9.70
2022-08-30T18:09:53.527Z,9.85
2022-08-30T18:12:20.675Z,8.02
2022-08-30T18:14:52.864Z,11.25
2022-08-30T18:17:19.814Z,9.85
2022-08-30T18:19:46.863Z,8.25
2022-08-30T18:22:14.366Z,8.18
2022-08-30T18:24:40.920Z,8.80
2022-08-30T18:27:07.548Z,8.65
2022-08-30T18:29:36.851Z,10.02
2022-08-30T18:32:06.049Z,7.15
2022-08-30T18:37:02.457Z,7.47
2022-08-30T18:39:34.464Z,7.95
2022-08-30T18:42:01.947Z,9.00
2022-08-30T18:44:33.152Z,12.18
2022-08-30T18:47:01.887Z,9.23
2022-08-30T18:49:33.544Z,10.07
2022-08-30T18:52:00.419Z,8.15
2022-08-30T18:54:27.999Z,8.50
2022-08-30T18:56:54.744Z,9.10
2022-08-30T18:59:21.447Z,9.60
2022-08-30T19:01:49.646Z,11.10
2022-08-30T19:04:22.434Z,11.05
2022-08-30T19:06:58.510Z,8.38
2022-08-30T19:09:26.612Z,10.57
2022-08-30T19:11:53.298Z,8.45
2022-08-30T19:14:19.867Z,8.57
2022-08-30T19:16:47.947Z,8.13
2022-08-30T19:19:14.507Z,11.20
2022-08-30T19:21:41.064Z,7.68
2022-08-30T19:24:09.207Z,10.60
2022-08-30T19:26:36.080Z,10.60
2022-08-30T19:29:03.231Z,14.10
2022-08-30T19:31:29.818Z,9.77
2022-08-30T19:33:56.548Z,9.50
2022-08-30T19:36:24.044Z,8.55
2022-08-30T19:38:51.859Z,7.68
2022-08-30T19:41:23.389Z,13.95
2022-08-30T19:43:51.257Z,10.73
2022-08-30T19:46:17.845Z,9.30
2022-08-30T19:48:44.415Z,7.78
2022-08-30T19:51:11.816Z,11.05
2022-08-30T19:53:41.413Z,9.30
2022-08-30T19:56:07.985Z,12.65
2022-08-30T19:58:36.219Z,8.25
2022-08-30T20:03:51.967Z,10.10
2022-08-30T20:06:19.858Z,8.45
2022-08-30T20:08:46.855Z,8.68
2022-08-30T20:11:14.088Z,11.02
2022-08-30T20:13:42.032Z,9.65
2022-08-30T20:16:10.636Z,7.57
2022-08-30T20:18:37.478Z,11.93
2022-08-30T20:21:04.841Z,12.80
2022-08-30T20:23:40.310Z,11.27
2022-08-30T20:26:07.294Z,10.52
2022-08-30T20:28:33.935Z,8.77
2022-08-30T20:31:04.476Z,13.73
2022-08-30T20:33:31.447Z,9.40
2022-08-30T20:36:00.723Z,12.30
2022-08-30T20:38:27.308Z,10.85
2022-08-30T20:40:55.822Z,9.35
2022-08-30T20:43:25.027Z,10.82
2022-08-30T20:45:51.646Z,11.00
2022-08-30T20:48:19.778Z,10.00
2022-08-30T20:50:46.480Z,10.45
2022-08-30T20:53:13.742Z,13.07
2022-08-30T20:55:41.119Z,10.18
2022-08-30T20:58:07.763Z,11.05
2022-08-30T21:00:34.342Z,10.35
2022-08-30T21:03:01.054Z,12.07
2022-08-30T21:05:29.122Z,10.52
2022-08-30T21:07:55.767Z,10.48
2022-08-30T21:10:23.456Z,11.68
2022-08-30T21:12:50.215Z,10.63
2022-08-30T21:15:36.173Z,9.57
2022-08-30T21:18:03.566Z,9.82
2022-08-30T21:20:31.498Z,13.82
2022-08-30T21:22:58.068Z,9.50
2022-08-30T21:25:24.777Z,11.73
2022-08-30T21:27:51.309Z,11.20
2022-08-30T21:30:18.071Z,8.90
2022-08-30T21:32:44.714Z,8.70
2022-08-30T21:35:11.303Z,9.18
2022-08-30T21:37:39.196Z,10.85
2022-08-30T21:40:06.784Z,10.25
2022-08-30T21:42:33.323Z,10.73
2022-08-30T21:44:59.856Z,11.38
2022-08-30T21:47:26.406Z,11.70
2022-08-30T21:49:52.956Z,9.80
2022-08-30T21:52:19.477Z,8.88
2022-08-30T21:54:47.368Z,10.60
2022-08-30T21:57:13.952Z,11.68
2022-08-30T21:59:40.508Z,14.55
2022-08-30T22:02:07.048Z,10.05
2022-08-30T22:04:33.594Z,10.32
2022-08-30T22:07:00.142Z,10.88
2022-08-30T22:09:26.722Z,10.15
2022-08-30T22:11:54.849Z,9.60
2022-08-30T22:14:22.441Z,9.38
2022-08-30T22:16:49.032Z,9.43
2022-08-30T22:19:19.799Z,11.63
2022-08-30T22:21:49.058Z,10.95
2022-08-30T22:24:15.925Z,10.63
2022-08-30T22:26:43.309Z,10.45
2022-08-30T22:29:11.935Z,13.88
2022-08-30T22:31:41.362Z,13.60
2022-08-30T22:34:08.912Z,9.38
2022-08-30T22:36:36.836Z,8.35
2022-08-30T22:39:06.211Z,13.10
2022-08-30T22:41:33.564Z,10.23
2022-08-30T22:44:00.785Z,9.40
2022-08-30T22:46:34.356Z,12.10
2022-08-30T22:49:02.123Z,11.82
2022-08-30T22:51:28.836Z,10.88
2022-08-30T22:53:55.410Z,9.90
2022-08-30T22:56:23.729Z,10.88
2022-08-30T22:58:50.335Z,11.75
2022-08-30T23:01:22.593Z,9.50
2022-08-30T23:03:51.783Z,10.48
2022-08-30T23:06:18.785Z,9.38
2022-08-30T23:08:45.897Z,8.95
2022-08-30T23:11:14.164Z,10.63
2022-08-30T23:13:41.956Z,10.20
2022-08-30T23:16:10.112Z,11.45
2022-08-30T23:18:38.862Z,10.13
2022-08-30T23:21:10.962Z,12.38
2022-08-30T23:23:38.128Z,8.63
2022-08-30T23:26:04.919Z,10.65
2022-08-30T23:28:31.439Z,8.95
2022-08-30T23:31:08.164Z,8.95
2022-08-30T23:33:34.674Z,10.75
2022-08-30T23:36:08.474Z,12.02
2022-08-30T23:38:35.158Z,10.38
2022-08-30T23:41:01.738Z,8.77
2022-08-30T23:43:28.294Z,11.10
2022-08-30T23:45:55.528Z,10.90
2022-08-30T23:48:22.150Z,9.50
2022-08-30T23:50:48.727Z,9.23
2022-08-30T23:53:16.736Z,10.57
2022-08-30T23:55:43.406Z,11.43
2022-08-30T23:58:10.011Z,8.73
